X  Kiinni Metar Aviation säätiedot     EHRD Rotterdam The Hague Airport
Lämpötila
13°C Lämpötila
5°C Kastepiste
59% Kosteus



Tuuli
13 KM/T
8 MPH
4 M/S
7 KTS



280°
L
Nykyiset olosuhteet

Kirkas Kirkas
Paine 1021 (hPa) - 30.15 (inHg)
Näkyvyys 6 (maili) - 9.7 (km)
Lentokenttä
Lentokentän koodi EHRD

Sijainti: Rotterdam The Hague Airport
Etäisyys: 14 (km)

Metar:
EHRD 141555Z AUTO 28007KT 240V330 9999 NSC 13/05 Q1021 NOSIG

Aika: 14-04-2024 17:55 CEST